createdAt,value
2018-05-18T00:01:52.711Z,5.27
2018-05-18T00:04:20.841Z,4.53
2018-05-18T00:06:48.912Z,5.30
2018-05-18T00:09:16.999Z,4.30
2018-05-18T00:11:45.082Z,4.70
2018-05-18T00:14:13.169Z,5.57
2018-05-18T00:16:41.225Z,5.13
2018-05-18T00:19:09.309Z,5.37
2018-05-18T00:21:37.352Z,4.60
2018-05-18T00:24:05.437Z,4.80
2018-05-18T00:26:33.525Z,5.63
2018-05-18T00:29:01.687Z,4.43
2018-05-18T00:31:30.168Z,5.27
2018-05-18T00:34:00.056Z,5.03
2018-05-18T00:36:28.093Z,5.50
2018-05-18T00:38:56.952Z,5.07
2018-05-18T00:41:25.110Z,5.40
2018-05-18T00:43:53.202Z,5.87
2018-05-18T00:46:22.301Z,5.63
2018-05-18T00:48:50.345Z,4.80
2018-05-18T00:51:18.432Z,4.97
2018-05-18T00:53:46.493Z,4.80
2018-05-18T00:56:14.549Z,4.73
2018-05-18T00:58:42.609Z,5.00
2018-05-18T01:01:11.001Z,4.70
2018-05-18T01:03:39.093Z,4.93
2018-05-18T01:06:07.145Z,5.43
2018-05-18T01:08:35.450Z,5.20
2018-05-18T01:11:03.517Z,4.83
2018-05-18T01:13:31.564Z,5.03
2018-05-18T01:16:00.015Z,4.60
2018-05-18T01:18:28.001Z,4.37
2018-05-18T01:20:56.075Z,4.87
2018-05-18T01:23:24.490Z,5.47
2018-05-18T01:25:54.056Z,5.10
2018-05-18T01:28:22.137Z,5.10
2018-05-18T01:30:50.621Z,5.40
2018-05-18T01:33:19.613Z,5.57
2018-05-18T01:35:47.677Z,5.90
2018-05-18T01:38:15.744Z,5.67
2018-05-18T01:40:44.044Z,6.30
2018-05-18T01:43:12.133Z,5.87
2018-05-18T01:45:40.205Z,5.57
2018-05-18T01:48:08.553Z,5.37
2018-05-18T01:50:36.617Z,5.87
2018-05-18T01:53:04.690Z,5.43
2018-05-18T01:55:33.107Z,6.30
2018-05-18T01:58:01.145Z,6.27
2018-05-18T02:00:29.229Z,5.30
2018-05-18T02:02:57.625Z,5.77
2018-05-18T02:05:25.669Z,6.07
2018-05-18T02:07:53.752Z,6.00
2018-05-18T02:10:22.128Z,4.20
2018-05-18T02:12:50.184Z,5.47
2018-05-18T02:15:18.273Z,4.60
2018-05-18T02:17:47.245Z,5.90
2018-05-18T02:20:15.332Z,5.17
2018-05-18T02:22:43.492Z,4.70
2018-05-18T02:25:11.877Z,4.87
2018-05-18T02:27:39.936Z,4.93
2018-05-18T02:30:08.012Z,4.40
2018-05-18T02:32:36.081Z,4.93
2018-05-18T02:35:04.381Z,4.40
2018-05-18T02:37:32.455Z,4.80
2018-05-18T02:40:00.821Z,4.73
2018-05-18T02:42:28.901Z,5.33
2018-05-18T02:44:56.973Z,5.60
2018-05-18T02:47:25.065Z,5.33
2018-05-18T02:49:53.135Z,5.70
2018-05-18T02:52:21.285Z,6.00
2018-05-18T02:54:49.282Z,6.63
2018-05-18T02:57:17.361Z,6.07
2018-05-18T02:59:45.418Z,5.97
2018-05-18T03:02:13.477Z,5.47
2018-05-18T03:04:41.561Z,5.83
2018-05-18T03:07:09.629Z,6.17
2018-05-18T03:09:38.009Z,6.50
2018-05-18T03:12:06.053Z,6.20
2018-05-18T03:14:34.178Z,5.97
2018-05-18T03:17:03.077Z,6.90
2018-05-18T03:19:31.917Z,8.00
2018-05-18T03:21:59.989Z,7.77
2018-05-18T03:24:28.061Z,8.27
2018-05-18T03:26:56.140Z,7.80
2018-05-18T03:29:24.193Z,7.60
2018-05-18T03:31:52.260Z,7.97
2018-05-18T03:34:20.339Z,8.73
2018-05-18T03:36:48.517Z,7.53
2018-05-18T03:39:16.912Z,6.77
2018-05-18T03:41:44.989Z,8.73
2018-05-18T03:44:13.031Z,7.23
2018-05-18T03:46:41.113Z,7.67
2018-05-18T03:49:09.169Z,6.67
2018-05-18T03:51:37.233Z,7.00
2018-05-18T03:54:05.313Z,6.93
2018-05-18T03:56:33.409Z,7.43
2018-05-18T03:59:01.485Z,6.53
2018-05-18T04:01:29.854Z,6.43
2018-05-18T04:03:57.921Z,7.77
2018-05-18T04:06:25.989Z,6.70
2018-05-18T04:08:54.356Z,7.93
2018-05-18T04:11:22.417Z,8.67
2018-05-18T04:13:50.613Z,8.60
2018-05-18T04:16:18.672Z,8.43
2018-05-18T04:18:46.757Z,9.30
2018-05-18T04:21:14.829Z,7.10
2018-05-18T04:23:42.917Z,7.27
2018-05-18T04:26:10.984Z,8.63
2018-05-18T04:28:39.061Z,7.27
2018-05-18T04:31:07.541Z,7.77
2018-05-18T04:33:35.627Z,8.33
2018-05-18T04:36:04.460Z,7.70
2018-05-18T04:38:32.957Z,6.93
2018-05-18T04:41:01.742Z,7.33
2018-05-18T04:43:29.825Z,7.60
2018-05-18T04:45:57.876Z,6.37
2018-05-18T04:48:26.293Z,6.90
2018-05-18T04:50:54.372Z,6.37
2018-05-18T04:53:22.404Z,6.93
2018-05-18T04:55:50.509Z,7.07
2018-05-18T04:58:18.548Z,6.70
2018-05-18T05:00:46.609Z,6.37
2018-05-18T05:03:14.722Z,6.93
2018-05-18T05:05:42.981Z,7.40
2018-05-18T05:08:11.032Z,6.83
2018-05-18T05:10:39.792Z,7.00
2018-05-18T05:13:09.461Z,6.73
2018-05-18T05:15:37.538Z,7.23
2018-05-18T05:18:05.605Z,7.03
2018-05-18T05:20:33.660Z,7.37
2018-05-18T05:23:01.813Z,8.70
2018-05-18T05:25:30.334Z,9.97
2018-05-18T05:27:58.405Z,10.07
2018-05-18T05:30:27.137Z,12.47
2018-05-18T05:32:55.973Z,12.13
2018-05-18T05:35:24.974Z,12.17
2018-05-18T05:37:53.062Z,13.10
2018-05-18T05:40:21.129Z,13.50
2018-05-18T05:42:49.925Z,13.53
2018-05-18T05:45:19.605Z,14.70
2018-05-18T05:47:48.920Z,14.60
2018-05-18T05:50:18.028Z,13.23
2018-05-18T05:52:46.916Z,13.80
2018-05-18T05:55:15.689Z,14.93
2018-05-18T05:57:44.680Z,14.83
2018-05-18T06:00:13.285Z,14.70
2018-05-18T06:02:42.949Z,14.60
2018-05-18T06:05:11.765Z,14.43
2018-05-18T06:07:40.508Z,14.37
2018-05-18T06:10:09.005Z,14.83
2018-05-18T06:12:37.089Z,13.80
2018-05-18T06:15:05.148Z,15.60
2018-05-18T06:17:33.265Z,14.60
2018-05-18T06:20:02.643Z,14.57
2018-05-18T06:22:31.645Z,14.73
2018-05-18T06:25:00.812Z,15.30
2018-05-18T06:27:29.508Z,14.63
2018-05-18T06:29:57.608Z,15.20
2018-05-18T06:32:25.681Z,15.33
2018-05-18T06:34:56.032Z,14.47
2018-05-18T06:37:25.673Z,13.80
2018-05-18T06:39:54.464Z,14.40
2018-05-18T06:42:23.281Z,13.80
2018-05-18T06:44:51.965Z,14.23
2018-05-18T06:47:20.725Z,14.17
2018-05-18T06:49:49.305Z,14.63
2018-05-18T06:52:17.977Z,14.63
2018-05-18T06:54:46.689Z,15.23
2018-05-18T06:57:15.513Z,14.70
2018-05-18T06:59:44.181Z,14.37
2018-05-18T07:02:13.048Z,13.67
2018-05-18T07:04:42.019Z,13.73
2018-05-18T07:07:10.096Z,14.33
2018-05-18T07:09:39.756Z,15.30
2018-05-18T07:12:08.841Z,14.85
2018-05-18T07:14:37.525Z,16.57
2018-05-18T07:17:06.530Z,14.20
2018-05-18T07:19:35.309Z,14.67
2018-05-18T07:22:04.169Z,13.25
2018-05-18T07:24:33.084Z,13.68
2018-05-18T07:27:01.981Z,12.75
2018-05-18T07:29:30.737Z,11.25
2018-05-18T07:31:59.415Z,12.13
2018-05-18T07:34:28.229Z,11.88
2018-05-18T07:36:56.843Z,13.52
2018-05-18T07:39:26.457Z,13.10
2018-05-18T07:41:55.997Z,12.07
2018-05-18T07:44:24.968Z,11.00
2018-05-18T07:46:53.597Z,12.43
2018-05-18T07:49:22.275Z,13.57
2018-05-18T07:51:50.970Z,12.93
2018-05-18T07:54:19.800Z,12.60
2018-05-18T07:56:48.731Z,13.27
2018-05-18T07:59:17.635Z,13.85
2018-05-18T08:01:45.725Z,12.82
2018-05-18T08:04:14.492Z,12.93
2018-05-18T08:06:43.205Z,12.75
2018-05-18T08:09:11.289Z,14.00
2018-05-18T08:11:39.365Z,15.18
2018-05-18T08:14:08.916Z,15.23
2018-05-18T08:16:37.614Z,14.15
2018-05-18T08:19:06.096Z,13.95
2018-05-18T08:21:35.120Z,15.25
2018-05-18T08:24:04.069Z,13.65
2018-05-18T08:26:32.133Z,13.18
2018-05-18T08:29:01.761Z,13.40
2018-05-18T08:31:31.189Z,12.63
2018-05-18T08:33:59.965Z,12.93
2018-05-18T08:36:29.613Z,11.73
2018-05-18T08:38:58.997Z,13.07
2018-05-18T08:41:27.691Z,11.90
2018-05-18T08:43:58.272Z,13.95
2018-05-18T08:46:26.977Z,12.77
2018-05-18T08:48:55.854Z,12.45
2018-05-18T08:51:24.336Z,10.77
2018-05-18T08:53:53.064Z,10.45
2018-05-18T08:56:21.922Z,10.32
2018-05-18T08:58:50.600Z,12.02
2018-05-18T09:01:19.405Z,11.98
2018-05-18T09:03:47.469Z,10.57
2018-05-18T09:06:16.414Z,12.07
2018-05-18T09:08:45.285Z,11.90
2018-05-18T09:11:14.845Z,11.23
2018-05-18T09:13:43.865Z,11.05
2018-05-18T09:16:11.995Z,10.52
2018-05-18T09:18:40.597Z,10.32
2018-05-18T09:21:08.678Z,12.20
2018-05-18T09:23:37.590Z,10.10
2018-05-18T09:26:07.129Z,11.05
2018-05-18T09:28:35.647Z,10.15
2018-05-18T09:31:04.678Z,12.15
2018-05-18T09:33:35.585Z,11.15
2018-05-18T09:36:04.465Z,11.43
2018-05-18T09:38:32.578Z,9.45
2018-05-18T09:41:03.110Z,9.93
2018-05-18T09:43:32.805Z,11.00
2018-05-18T09:46:01.698Z,10.63
2018-05-18T09:48:29.753Z,11.35
2018-05-18T09:50:58.657Z,11.07
2018-05-18T09:53:27.625Z,10.73
2018-05-18T09:55:56.102Z,11.45
2018-05-18T09:58:24.201Z,8.80
2018-05-18T10:00:52.757Z,11.75
2018-05-18T10:03:20.841Z,11.38
2018-05-18T10:05:48.900Z,11.00
2018-05-18T10:08:17.924Z,10.43
2018-05-18T10:10:46.621Z,10.13
2018-05-18T10:13:15.980Z,12.25
2018-05-18T10:15:44.768Z,11.02
2018-05-18T10:18:13.672Z,12.45
2018-05-18T10:20:42.345Z,11.25
2018-05-18T10:23:11.276Z,11.20
2018-05-18T10:25:40.361Z,11.57
2018-05-18T10:28:09.238Z,11.50
2018-05-18T10:30:37.296Z,10.57
2018-05-18T10:33:06.009Z,11.25
2018-05-18T10:35:34.092Z,11.18
2018-05-18T10:38:02.675Z,10.05
2018-05-18T10:40:32.092Z,11.05
2018-05-18T10:43:01.881Z,11.93
2018-05-18T10:45:30.665Z,11.57
2018-05-18T10:48:00.345Z,11.50
2018-05-18T10:50:29.033Z,13.07
2018-05-18T10:52:57.141Z,12.80
2018-05-18T10:55:27.018Z,11.68
2018-05-18T10:57:55.883Z,10.10
2018-05-18T11:00:24.996Z,12.35
2018-05-18T11:02:54.391Z,11.27
2018-05-18T11:05:23.155Z,10.80
2018-05-18T11:07:51.917Z,11.55
2018-05-18T11:10:20.980Z,12.75
2018-05-18T11:12:49.617Z,12.63
2018-05-18T11:15:19.024Z,10.77
2018-05-18T11:17:48.568Z,10.20
2018-05-18T11:20:17.869Z,9.82
2018-05-18T11:22:46.909Z,11.40
2018-05-18T11:25:15.770Z,9.75
2018-05-18T11:27:43.853Z,11.25
2018-05-18T11:30:11.954Z,12.48
2018-05-18T11:32:40.842Z,12.02
2018-05-18T11:35:10.397Z,12.82
2018-05-18T11:37:39.389Z,10.70
2018-05-18T11:40:08.013Z,11.32
2018-05-18T11:42:36.084Z,12.10
2018-05-18T11:45:04.760Z,10.93
2018-05-18T11:47:33.441Z,11.02
2018-05-18T11:50:01.497Z,11.75
2018-05-18T11:52:30.405Z,10.30
2018-05-18T11:54:59.209Z,10.10
2018-05-18T11:57:29.085Z,13.15
2018-05-18T11:59:58.480Z,10.15
2018-05-18T12:02:26.639Z,10.75
2018-05-18T12:04:55.482Z,9.60
2018-05-18T12:07:24.317Z,11.15
2018-05-18T12:09:52.393Z,8.63
2018-05-18T12:12:21.025Z,9.10
2018-05-18T12:14:49.075Z,9.10
2018-05-18T12:17:17.777Z,9.77
2018-05-18T12:19:48.200Z,10.88
2018-05-18T12:22:16.257Z,11.75
2018-05-18T12:24:45.153Z,11.73
2018-05-18T12:27:13.936Z,13.00
2018-05-18T12:29:42.957Z,11.73
2018-05-18T12:32:11.797Z,12.45
2018-05-18T12:34:39.893Z,12.20
2018-05-18T12:37:08.480Z,11.90
2018-05-18T12:39:37.090Z,10.10
2018-05-18T12:42:05.686Z,10.35
2018-05-18T12:44:34.608Z,11.63
2018-05-18T12:47:03.555Z,10.65
2018-05-18T12:49:31.601Z,10.73
2018-05-18T12:51:59.685Z,12.15
2018-05-18T12:54:27.793Z,11.40
2018-05-18T12:56:56.729Z,14.52
2018-05-18T12:59:24.940Z,13.60
2018-05-18T13:01:53.197Z,12.10
2018-05-18T13:04:23.288Z,13.57
2018-05-18T13:06:52.792Z,11.50
2018-05-18T13:09:20.909Z,11.12
2018-05-18T13:11:51.077Z,12.23
2018-05-18T13:14:19.148Z,11.43
2018-05-18T13:16:47.753Z,12.45
2018-05-18T13:19:15.853Z,13.55
2018-05-18T13:21:45.048Z,12.73
2018-05-18T13:24:13.820Z,13.43
2018-05-18T13:26:41.879Z,12.63
2018-05-18T13:29:10.701Z,12.07
2018-05-18T13:31:40.202Z,11.00
2018-05-18T13:34:09.060Z,12.77
2018-05-18T13:36:37.169Z,12.55
2018-05-18T13:39:05.237Z,11.52
2018-05-18T13:41:33.616Z,12.13
2018-05-18T13:44:02.469Z,13.68
2018-05-18T13:46:30.590Z,13.50
2018-05-18T13:48:58.917Z,11.57
2018-05-18T13:51:27.705Z,13.02
2018-05-18T13:53:55.776Z,11.85
2018-05-18T13:56:23.872Z,15.52
2018-05-18T13:58:52.257Z,13.98
2018-05-18T14:01:21.145Z,12.95
2018-05-18T14:03:50.017Z,14.13
2018-05-18T14:06:19.205Z,12.93
2018-05-18T14:08:47.273Z,13.93
2018-05-18T14:11:15.861Z,13.38
2018-05-18T14:13:43.932Z,13.00
2018-05-18T14:16:12.684Z,15.00
2018-05-18T14:18:41.433Z,13.13
2018-05-18T14:21:10.089Z,14.27
2018-05-18T14:23:38.628Z,15.18
2018-05-18T14:26:08.077Z,13.10
2018-05-18T14:28:36.789Z,13.20
2018-05-18T14:31:04.877Z,13.73
2018-05-18T14:33:34.264Z,14.35
2018-05-18T14:36:02.321Z,13.07
2018-05-18T14:38:30.377Z,13.38
2018-05-18T14:40:59.009Z,13.98
2018-05-18T14:43:27.841Z,14.00
2018-05-18T14:45:55.937Z,14.40
2018-05-18T14:48:24.333Z,14.45
2018-05-18T14:50:52.385Z,15.10
2018-05-18T14:53:20.473Z,13.88
2018-05-18T14:55:50.360Z,13.05
2018-05-18T14:58:18.467Z,14.48
2018-05-18T15:00:46.546Z,14.25
2018-05-18T15:03:14.785Z,13.45
2018-05-18T15:05:43.095Z,14.27
2018-05-18T15:08:11.169Z,13.82
2018-05-18T15:10:39.252Z,12.25
2018-05-18T15:13:08.688Z,13.95
2018-05-18T15:15:36.741Z,12.45
2018-05-18T15:18:04.804Z,13.30
2018-05-18T15:20:32.868Z,13.05
2018-05-18T15:23:00.921Z,11.77
2018-05-18T15:25:28.973Z,13.13
2018-05-18T15:27:57.078Z,11.55
2018-05-18T15:30:25.938Z,11.40
2018-05-18T15:32:53.988Z,12.13
2018-05-18T15:35:22.601Z,12.68
2018-05-18T15:37:50.689Z,12.93
2018-05-18T15:40:18.757Z,13.38
2018-05-18T15:42:47.220Z,11.73
2018-05-18T15:45:15.176Z,12.52
2018-05-18T15:47:43.238Z,14.05
2018-05-18T15:50:11.576Z,13.65
2018-05-18T15:52:39.628Z,15.25
2018-05-18T15:55:08.464Z,14.65
2018-05-18T15:57:36.839Z,13.85
2018-05-18T16:00:04.941Z,14.63
2018-05-18T16:02:34.021Z,12.85
2018-05-18T16:05:02.122Z,13.35
2018-05-18T16:07:30.178Z,11.90
2018-05-18T16:09:58.584Z,13.98
2018-05-18T16:12:26.625Z,14.65
2018-05-18T16:14:54.685Z,15.15
2018-05-18T16:17:22.773Z,15.70
2018-05-18T16:19:50.865Z,14.80
2018-05-18T16:22:18.942Z,15.77
2018-05-18T16:24:47.205Z,16.02
2018-05-18T16:27:16.180Z,15.90
2018-05-18T16:29:44.270Z,14.00
2018-05-18T16:32:12.345Z,14.23
2018-05-18T16:34:40.418Z,14.50
2018-05-18T16:37:08.465Z,14.10
2018-05-18T16:39:36.574Z,14.30
2018-05-18T16:42:05.409Z,13.85
2018-05-18T16:44:33.476Z,14.02
2018-05-18T16:47:01.578Z,14.48
2018-05-18T16:49:30.657Z,14.93
2018-05-18T16:51:58.756Z,13.90
2018-05-18T16:54:28.349Z,13.57
2018-05-18T16:56:56.677Z,13.00
2018-05-18T16:59:25.504Z,14.10
2018-05-18T17:01:53.584Z,14.48
2018-05-18T17:04:21.684Z,15.65
2018-05-18T17:06:49.761Z,17.58
2018-05-18T17:09:18.617Z,17.20
2018-05-18T17:11:46.713Z,19.48
2018-05-18T17:14:16.377Z,20.40
2018-05-18T17:16:44.473Z,18.70
2018-05-18T17:19:12.876Z,18.85
2018-05-18T17:21:40.949Z,19.87
2018-05-18T17:24:08.992Z,19.67
2018-05-18T17:26:37.385Z,19.50
2018-05-18T17:29:05.469Z,20.65
2018-05-18T17:31:33.512Z,20.12
2018-05-18T17:34:01.881Z,19.25
2018-05-18T17:36:29.950Z,20.50
2018-05-18T17:38:58.055Z,20.10
2018-05-18T17:41:26.137Z,21.83
2018-05-18T17:43:54.212Z,21.12
2018-05-18T17:46:23.069Z,20.20
2018-05-18T17:48:51.203Z,20.80
2018-05-18T17:51:20.212Z,21.55
2018-05-18T17:53:48.280Z,21.12
2018-05-18T17:56:16.597Z,22.65
2018-05-18T17:58:44.653Z,21.75
2018-05-18T18:01:12.747Z,23.02
2018-05-18T18:03:40.836Z,22.37
2018-05-18T18:06:09.665Z,22.62
2018-05-18T18:08:37.758Z,23.38
2018-05-18T18:11:05.829Z,23.48
2018-05-18T18:13:33.888Z,26.98
2018-05-18T18:16:02.006Z,26.58
2018-05-18T18:18:30.884Z,25.27
2018-05-18T18:20:58.964Z,24.77
2018-05-18T18:23:27.025Z,25.30
2018-05-18T18:25:55.125Z,25.60
2018-05-18T18:28:23.994Z,26.23
2018-05-18T18:30:52.066Z,26.80
2018-05-18T18:33:20.121Z,25.43
2018-05-18T18:35:48.213Z,26.03
2018-05-18T18:38:16.252Z,25.77
2018-05-18T18:40:44.808Z,24.23
2018-05-18T18:43:12.946Z,26.87
2018-05-18T18:45:40.952Z,25.07
2018-05-18T18:48:09.377Z,26.07
2018-05-18T18:50:37.461Z,25.60
2018-05-18T18:53:05.529Z,26.10
2018-05-18T18:55:34.480Z,26.20
2018-05-18T18:58:02.583Z,24.40
2018-05-18T19:00:30.642Z,26.27
2018-05-18T19:02:58.744Z,24.67
2018-05-18T19:05:27.602Z,24.77
2018-05-18T19:07:55.716Z,22.90
2018-05-18T19:10:23.762Z,23.27
2018-05-18T19:12:51.815Z,24.53
2018-05-18T19:15:20.538Z,23.10
2018-05-18T19:17:49.389Z,23.13
2018-05-18T19:20:17.449Z,23.73
2018-05-18T19:22:45.560Z,22.90
2018-05-18T19:25:13.635Z,23.63
2018-05-18T19:27:41.677Z,23.20
2018-05-18T19:30:10.068Z,24.07
2018-05-18T19:32:38.129Z,23.20
2018-05-18T19:35:06.213Z,23.47
2018-05-18T19:37:34.316Z,23.70
2018-05-18T19:40:03.236Z,22.73
2018-05-18T19:42:31.308Z,22.00
2018-05-18T19:45:00.424Z,22.07
2018-05-18T19:47:28.516Z,22.33
2018-05-18T19:49:56.691Z,22.80
2018-05-18T19:52:24.937Z,21.80
2018-05-18T19:54:53.037Z,21.57
2018-05-18T19:57:21.089Z,22.07
2018-05-18T19:59:49.705Z,22.20
2018-05-18T20:02:17.749Z,22.33
2018-05-18T20:04:45.825Z,21.43
2018-05-18T20:07:14.129Z,22.37
2018-05-18T20:09:42.961Z,22.60
2018-05-18T20:12:11.150Z,21.27
2018-05-18T20:14:39.128Z,21.83
2018-05-18T20:17:07.381Z,23.47
2018-05-18T20:19:35.477Z,23.60
2018-05-18T20:22:04.044Z,21.27
2018-05-18T20:24:32.148Z,22.27
2018-05-18T20:27:00.200Z,22.57
2018-05-18T20:29:28.802Z,22.27
2018-05-18T20:31:56.932Z,22.50
2018-05-18T20:34:24.941Z,21.07
2018-05-18T20:36:53.293Z,22.07
2018-05-18T20:39:21.368Z,22.37
2018-05-18T20:41:49.437Z,22.47
2018-05-18T20:44:17.741Z,22.80
2018-05-18T20:46:45.793Z,23.03
2018-05-18T20:49:13.853Z,20.23
2018-05-18T20:51:42.304Z,22.37
2018-05-18T20:54:10.317Z,22.87
2018-05-18T20:56:38.417Z,21.33
2018-05-18T20:59:07.605Z,22.17
2018-05-18T21:01:36.597Z,21.40
2018-05-18T21:04:04.682Z,21.47
2018-05-18T21:06:32.725Z,22.67
2018-05-18T21:09:01.129Z,22.20
2018-05-18T21:11:29.173Z,22.70
2018-05-18T21:13:57.251Z,20.93
2018-05-18T21:16:25.609Z,22.03
2018-05-18T21:18:53.708Z,20.27
2018-05-18T21:21:21.765Z,20.63
2018-05-18T21:23:50.261Z,22.30
2018-05-18T21:26:18.501Z,20.87
2018-05-18T21:28:46.593Z,21.73
2018-05-18T21:31:14.668Z,20.37
2018-05-18T21:33:42.724Z,19.77
2018-05-18T21:36:10.881Z,20.00
2018-05-18T21:38:38.901Z,19.67
2018-05-18T21:41:06.949Z,21.53
2018-05-18T21:43:35.008Z,20.63
2018-05-18T21:46:03.129Z,20.20
2018-05-18T21:48:31.981Z,20.37
2018-05-18T21:51:00.133Z,19.60
2018-05-18T21:53:28.221Z,20.20
2018-05-18T21:55:56.277Z,20.50
2018-05-18T21:58:24.369Z,20.63
2018-05-18T22:00:52.737Z,20.43
2018-05-18T22:03:21.028Z,20.27
2018-05-18T22:05:49.085Z,18.80
2018-05-18T22:08:17.669Z,18.17
2018-05-18T22:10:45.728Z,18.20
2018-05-18T22:13:13.821Z,19.57
2018-05-18T22:15:41.996Z,17.47
2018-05-18T22:18:10.057Z,18.63
2018-05-18T22:20:38.137Z,18.77
2018-05-18T22:23:06.245Z,17.90
2018-05-18T22:25:35.100Z,18.13
2018-05-18T22:28:03.160Z,17.17
2018-05-18T22:30:31.640Z,18.07
2018-05-18T22:32:59.725Z,17.00
2018-05-18T22:35:27.780Z,17.07
2018-05-18T22:37:55.856Z,17.67
2018-05-18T22:40:23.916Z,17.07
2018-05-18T22:42:52.009Z,16.17
2018-05-18T22:45:20.376Z,16.90
2018-05-18T22:47:48.438Z,16.77
2018-05-18T22:50:16.505Z,16.07
2018-05-18T22:52:44.825Z,16.27
2018-05-18T22:55:12.865Z,15.67
2018-05-18T22:57:40.928Z,15.03
2018-05-18T23:00:09.224Z,15.50
2018-05-18T23:02:37.284Z,15.47
2018-05-18T23:05:06.366Z,15.93
2018-05-18T23:07:34.441Z,15.90
2018-05-18T23:10:02.510Z,15.87
2018-05-18T23:12:30.548Z,15.90
2018-05-18T23:14:59.717Z,16.17
2018-05-18T23:17:27.850Z,16.47
2018-05-18T23:19:55.845Z,16.57
2018-05-18T23:22:23.904Z,15.60
2018-05-18T23:24:51.961Z,15.93
2018-05-18T23:27:20.037Z,15.57
2018-05-18T23:29:48.129Z,15.37
2018-05-18T23:32:16.176Z,14.70
2018-05-18T23:34:44.247Z,14.83
2018-05-18T23:37:12.321Z,15.27
2018-05-18T23:39:40.389Z,15.43
2018-05-18T23:42:08.464Z,15.43
2018-05-18T23:44:36.532Z,15.07
2018-05-18T23:47:04.575Z,15.97
2018-05-18T23:49:33.417Z,14.57
2018-05-18T23:52:01.785Z,16.80
2018-05-18T23:54:29.868Z,16.10
2018-05-18T23:56:57.921Z,14.30
2018-05-18T23:59:26.341Z,14.70
